Flight Track Log - Related Links

Times and Time Zones

All times are in EDT time to prevent confusion due to time zone crossing. See the N90Z flight status page for this flight to view local times or setup timezone preferences in your user account.

Time Position Orientation Groundspeed Altitude Reporting Facility
EDT Latitude Longitude Course Direction KTS MPH feet Rate Location/Type
Tue 05:12:00 PM 41.1016 -77.4856 306° West  Level Estimated
Tue 05:13:00 PM 41.1519 -77.5810 305° West  Level Estimated
Tue 05:14:00 PM 41.2021 -77.6764 305° West  Level Estimated
Tue 05:15:00 PM 41.2522 -77.7721 305° West  Level Estimated
Tue 05:16:00 PM 41.3022 -77.8678 305° West  Level Estimated
Tue 05:17:00 PM 41.3522 -77.9638 305° West  Level Estimated
Tue 05:18:00 PM 41.4020 -78.0598 305° West  Level Estimated
Tue 05:19:00 PM 41.4518 -78.1560 305° West  Level Estimated
Tue 05:20:00 PM 41.5015 -78.2524 305° West  Level Estimated
Tue 05:21:00 PM 41.5512 -78.3489 305° West  Level Estimated
Tue 05:22:00 PM 41.6007 -78.4455 304° West  Level Estimated
Tue 05:23:00 PM 41.6502 -78.5424 304° West  Level Estimated
Tue 05:24:00 PM 41.6996 -78.6393 304° West  Level Estimated
Tue 05:25:00 PM 41.7489 -78.7364 304° West  Level Estimated
Tue 05:26:00 PM 41.7981 -78.8336 304° West  Level Estimated
Tue 05:27:00 PM 41.8472 -78.9311 304° West  Level Estimated
Tue 05:28:00 PM 41.8963 -79.0286 304° West  Level Estimated
Tue 05:29:00 PM 41.9453 -79.1263 304° West  Level Estimated
Tue 05:30:00 PM 41.9942 -79.2242 304° West  Level Estimated
Tue 05:31:00 PM 42.0430 -79.3222 304° West  Level Estimated
Tue 05:32:00 PM 42.0917 -79.4203 304° West  Level Estimated
Tue 05:33:00 PM 42.1404 -79.5186 304° West  Level Estimated
Tue 05:34:00 PM 42.1889 -79.6171 304° West  Level Estimated
Tue 05:35:00 PM 42.2359 -79.7127 304° West  Level Estimated
Tue 05:36:00 PM 42.2828 -79.8084 304° West  Level Estimated
Tue 05:37:00 PM 42.3278 -79.9004 303° West  Level Estimated
Tue 05:38:00 PM 42.3727 -79.9926 303° West  Level Estimated
Tue 05:39:00 PM 42.4175 -80.0848 303° West  Level Estimated
Tue 05:40:00 PM 42.4622 -80.1772 303° West  Level Estimated
Tue 05:41:00 PM 42.5072 -80.2706 303° West  Level Estimated
Tue 05:42:00 PM 42.5522 -80.3640 303° West  Level Estimated
Tue 05:43:00 PM 42.5971 -80.4576 303° West  Level Estimated
Tue 05:44:00 PM 42.6419 -80.5514 303° West  Level Estimated
Tue 05:45:00 PM 42.6866 -80.6453 303° West  Level Estimated
Tue 05:46:00 PM 42.7313 -80.7393 303° West  Level Estimated
Tue 05:47:00 PM 42.7759 -80.8335 303° West  Level Estimated
Tue 05:48:00 PM 42.8204 -80.9278 303° West  Level Estimated
Tue 05:49:00 PM 42.8637 -81.0197 303° West  Level Estimated
Tue 05:50:00 PM 42.9068 -81.1117 303° West  Level Estimated
Tue 05:51:00 PM 42.9499 -81.2038 303° West  Level Estimated
Tue 05:52:00 PM 42.9930 -81.2961 303° West  Level Estimated
Tue 05:53:00 PM 43.0359 -81.3886 302° West  Level Estimated
Tue 05:54:00 PM 43.0788 -81.4811 302° West  Level Estimated
Tue 05:55:00 PM 43.1216 -81.5738 302° West  Level Estimated
Tue 05:56:00 PM 43.1643 -81.6666 302° West  Level Estimated
Tue 05:57:00 PM 43.2072 -81.7600 302° West  Level Estimated
Tue 05:58:00 PM 43.2500 -81.8536 302° West  Level Estimated
Tue 05:59:00 PM 43.2927 -81.9473 302° West  Level Estimated
Tue 06:00:00 PM 43.3354 -82.0412 302° West  Level Estimated
Tue 06:01:00 PM 43.3780 -82.1352 302° West  Level Estimated
Tue 06:02:00 PM 43.4205 -82.2293 302° West  Level Estimated
Tue 06:03:00 PM 43.4629 -82.3235 302° West  Level Estimated
Tue 06:04:00 PM 43.5053 -82.4179 302° West  Level Estimated
Tue 06:05:00 PM 43.5485 -82.5146 302° West  Level Estimated
Tue 06:06:00 PM 43.5901 -82.6080 302° West  Level Estimated
Tue 06:07:00 PM 43.6317 -82.7016 302° West  Level Estimated
Tue 06:08:00 PM 43.6732 -82.7952 302° West  Level Estimated
Tue 06:09:00 PM 43.7146 -82.8890 301° West  Level Estimated
Tue 06:10:00 PM 43.7571 -82.9856 301° West  Level Estimated
Tue 06:11:00 PM 43.7995 -83.0823 301° West  Level Estimated
Tue 06:12:00 PM 43.8419 -83.1791 301° West  Level Estimated
Tue 06:13:00 PM 43.8841 -83.2761 301° West  Level Estimated
Tue 06:14:00 PM 43.9253 -83.3710 301° West  Level Estimated
Tue 06:15:00 PM 43.9670 -83.4673 301° West  Level Estimated
Tue 06:16:00 PM 44.0085 -83.5637 301° West  Level Estimated
Tue 06:17:00 PM 44.0471 -83.6534 301° West  Level Estimated
Tue 06:18:00 PM 44.0868 -83.7460 301° West  Level Estimated
Tue 06:19:00 PM 44.1265 -83.8389 301° West  Level Estimated
Tue 06:20:00 PM 44.1660 -83.9318 301° West  Level Estimated
Tue 06:21:00 PM 44.2055 -84.0248 301° West  Level Estimated
Tue 06:22:00 PM 44.2450 -84.1180 301° West  Level Estimated
Tue 06:23:00 PM 44.2843 -84.2113 301° West  Level Estimated
Tue 06:24:00 PM 44.3236 -84.3047 300° West  Level Estimated
Tue 06:25:00 PM 44.3628 -84.3983 300° West  Level Estimated
Tue 06:26:00 PM 44.4019 -84.4919 300° West  Level Estimated
Tue 06:27:00 PM 44.4409 -84.5857 300° West  Level Estimated
Tue 06:28:00 PM 44.4799 -84.6796 300° West  Level Estimated
Tue 06:29:00 PM 44.5187 -84.7737 300° West  Level Estimated
Tue 06:30:00 PM 44.5576 -84.8679 300° West  Level Estimated
Tue 06:31:00 PM 44.5963 -84.9622 300° West  Level Estimated
Tue 06:32:00 PM 44.6349 -85.0566 300° West  Level Estimated
Tue 06:33:00 PM 44.6735 -85.1511 300° West  Level Estimated
Tue 06:34:00 PM 44.7120 -85.2457 300° West  Level Estimated
Tue 06:35:00 PM 44.7504 -85.3405 300° West  Level Estimated
Tue 06:36:00 PM 44.7887 -85.4354 300° West  Level Estimated
Tue 06:37:00 PM 44.8269 -85.5304 300° West  Level Estimated
Tue 06:38:00 PM 44.8651 -85.6255 300° West  Level Estimated
Tue 06:39:00 PM 44.9032 -85.7208 299° West  Level Estimated
Tue 06:40:00 PM 44.9412 -85.8162 299° West  Level Estimated
Tue 06:41:00 PM 44.9791 -85.9118 299° West  Level Estimated
Tue 06:42:00 PM 45.0170 -86.0074 299° West  Level Estimated
Tue 06:43:00 PM 45.0548 -86.1032 299° West  Level Estimated
Tue 06:44:00 PM 45.0924 -86.1991 299° West  Level Estimated
Tue 06:45:00 PM 45.1301 -86.2951 299° West  Level Estimated
Tue 06:46:00 PM 45.1676 -86.3913 299° West  Level Estimated
Tue 06:47:00 PM 45.2050 -86.4875 299° West  Level Estimated
Tue 06:48:00 PM 45.2424 -86.5840 299° West  Level Estimated
Tue 06:49:00 PM 45.2797 -86.6805 299° West  Level Estimated
Tue 06:50:00 PM 45.3169 -86.7772 299° West  Level Estimated
Tue 06:51:00 PM 45.3540 -86.8740 299° West  Level Estimated
Tue 06:52:00 PM 45.3910 -86.9709 299° West  Level Estimated
Tue 06:53:00 PM 45.4280 -87.0679 299° West  Level Estimated
Tue 06:54:00 PM 45.4649 -87.1651 298° West  Level Estimated
Tue 06:55:00 PM 45.5017 -87.2624 298° West  Level Estimated
Tue 06:56:00 PM 45.5384 -87.3598 298° West  Level Estimated
Tue 06:57:00 PM 45.5750 -87.4574 298° West  Level Estimated
Tue 06:58:00 PM 45.6116 -87.5551 298° West  Level Estimated
Tue 06:59:00 PM 45.6480 -87.6529 298° West  Level Estimated
Tue 07:00:00 PM 45.6844 -87.7508 298° West  Level Estimated
Tue 07:01:00 PM 45.7207 -87.8489 298° West  Level Estimated
Tue 07:02:00 PM 45.7569 -87.9471 298° West  Level Estimated
Tue 07:03:00 PM 45.7930 -88.0454 298° West  Level Estimated
Tue 07:04:00 PM 45.8184 -88.1146 298° West  Level Estimated
Tue 07:05:00 PM 45.8184 -88.1146 70° East  Level Estimated
Tue 07:06:00 PM 45.8184 -88.1146 70° East  Level Estimated
Tue 07:07:00 PM 45.8184 -88.1146 70° East  Level Estimated
Tue 07:08:00 PM 45.8184 -88.1146 70° East  Level Estimated
Tue 07:08:49 PM 45.3261 -87.3856 70° East 258 297 14,700  Level Minneapolis Center
Tue 07:09:00 PM 45.8184 -88.1146 70° East  Level Estimated
Tue 07:09:51 PM 45.3214 -87.4844 266° West 253 291 13,100  Level Minneapolis Center
Tue 07:10:00 PM 45.8184 -88.1146 70° East  Level Estimated
Tue 07:10:53 PM 45.3361 -87.5806 282° West 251 289 11,400  Level Minneapolis Center
Tue 07:11:00 PM 45.8184 -88.1146 70° East  Level Estimated
Tue 07:11:55 PM 45.3797 -87.6778 303° West 239 275 9,500  Level Minneapolis Center
Tue 07:12:00 PM 45.8184 -88.1146 70° East  Level Estimated
Tue 07:12:57 PM 45.4147 -87.7528 304° West 230 265 7,800  Level Minneapolis Center
Tue 07:13:00 PM 45.8184 -88.1146 70° East  Level Estimated
Tue 07:13:59 PM 45.4483 -87.8261 303° West 224 258 6,800  Level Minneapolis Center
Tue 07:14:00 PM 45.8184 -88.1146 70° East  Level Estimated
Tue 07:15:01 PM 45.4836 -87.9194 298° West 246 283 5,600  Level Minneapolis Center
Tue 07:16:03 PM 45.5142 -87.9900 302° West 230 265 4,800 -774 Descending Minneapolis Center
Tue 07:17:05 PM 45.5461 -88.0686 300° West 219 252 4,000 -662 Descending Minneapolis Center
Tue 07:18:19 PM 45.5875 -88.1419 309° West 208 239 3,300 -350 Descending Minneapolis Center
Tue 07:19:22 PM 45.6467 -88.1428 359° North 193 222 3,200 -96 Descending Minneapolis Center
Tue 07:20:24 PM 45.7056 -88.1353 North 192 221 3,100 -242 Descending Minneapolis Center
Tue 07:21:26 PM 45.7597 -88.1231 North 190 219 2,700 -387 Descending Minneapolis Center

Login

Don't have an account? Register now (free) for customized features, flight alerts, and more!